sensor_id;sensor_type;location;lat;lon;timestamp;P1;durP1;ratioP1;P2;durP2;ratioP2
13520;SDS011;6832;51.186;3.236;2023-02-18T00:00:15;42.83;;;9.80;;
13520;SDS011;6832;51.186;3.236;2023-02-18T00:02:47;37.17;;;9.10;;
13520;SDS011;6832;51.186;3.236;2023-02-18T00:05:22;54.73;;;10.23;;
13520;SDS011;6832;51.186;3.236;2023-02-18T00:07:54;40.80;;;10.63;;
13520;SDS011;6832;51.186;3.236;2023-02-18T00:10:22;40.70;;;9.33;;
13520;SDS011;6832;51.186;3.236;2023-02-18T00:12:50;38.93;;;9.57;;
13520;SDS011;6832;51.186;3.236;2023-02-18T00:15:19;40.93;;;9.73;;
13520;SDS011;6832;51.186;3.236;2023-02-18T00:17:46;43.60;;;9.60;;
13520;SDS011;6832;51.186;3.236;2023-02-18T00:20:16;37.37;;;9.20;;
13520;SDS011;6832;51.186;3.236;2023-02-18T00:22:44;51.20;;;10.00;;
13520;SDS011;6832;51.186;3.236;2023-02-18T00:25:18;41.07;;;8.80;;
13520;SDS011;6832;51.186;3.236;2023-02-18T00:28:00;57.57;;;10.93;;
13520;SDS011;6832;51.186;3.236;2023-02-18T00:30:27;46.03;;;9.47;;
13520;SDS011;6832;51.186;3.236;2023-02-18T00:32:55;51.13;;;9.83;;
13520;SDS011;6832;51.186;3.236;2023-02-18T00:35:24;37.70;;;8.37;;
13520;SDS011;6832;51.186;3.236;2023-02-18T00:38:15;43.70;;;9.20;;
13520;SDS011;6832;51.186;3.236;2023-02-18T00:40:46;45.23;;;9.17;;
13520;SDS011;6832;51.186;3.236;2023-02-18T00:43:15;42.83;;;8.97;;
13520;SDS011;6832;51.186;3.236;2023-02-18T00:45:42;38.13;;;8.93;;
13520;SDS011;6832;51.186;3.236;2023-02-18T00:48:09;39.67;;;8.27;;
13520;SDS011;6832;51.186;3.236;2023-02-18T00:50:37;36.10;;;8.67;;
13520;SDS011;6832;51.186;3.236;2023-02-18T00:53:04;42.30;;;8.73;;
13520;SDS011;6832;51.186;3.236;2023-02-18T00:55:32;40.77;;;9.40;;
13520;SDS011;6832;51.186;3.236;2023-02-18T00:58:10;43.20;;;8.43;;
13520;SDS011;6832;51.186;3.236;2023-02-18T01:00:53;35.23;;;8.20;;
13520;SDS011;6832;51.186;3.236;2023-02-18T01:03:21;33.53;;;9.17;;
13520;SDS011;6832;51.186;3.236;2023-02-18T01:05:49;37.57;;;8.43;;
13520;SDS011;6832;51.186;3.236;2023-02-18T01:08:16;49.50;;;9.80;;
13520;SDS011;6832;51.186;3.236;2023-02-18T01:10:45;46.50;;;9.67;;
13520;SDS011;6832;51.186;3.236;2023-02-18T01:13:15;49.90;;;9.97;;
13520;SDS011;6832;51.186;3.236;2023-02-18T01:15:43;40.80;;;8.77;;
13520;SDS011;6832;51.186;3.236;2023-02-18T01:18:13;40.93;;;8.80;;
13520;SDS011;6832;51.186;3.236;2023-02-18T01:20:41;39.73;;;9.17;;
13520;SDS011;6832;51.186;3.236;2023-02-18T01:23:09;47.93;;;9.63;;
13520;SDS011;6832;51.186;3.236;2023-02-18T01:25:37;38.63;;;9.00;;
13520;SDS011;6832;51.186;3.236;2023-02-18T01:28:05;41.97;;;9.37;;
13520;SDS011;6832;51.186;3.236;2023-02-18T01:30:33;36.40;;;9.17;;
13520;SDS011;6832;51.186;3.236;2023-02-18T01:33:00;48.07;;;9.97;;
13520;SDS011;6832;51.186;3.236;2023-02-18T01:35:37;36.93;;;9.03;;
13520;SDS011;6832;51.186;3.236;2023-02-18T01:38:05;43.90;;;8.87;;
13520;SDS011;6832;51.186;3.236;2023-02-18T01:46:36;41.53;;;8.93;;
13520;SDS011;6832;51.186;3.236;2023-02-18T01:49:04;38.07;;;8.63;;
13520;SDS011;6832;51.186;3.236;2023-02-18T01:51:40;41.23;;;9.47;;
13520;SDS011;6832;51.186;3.236;2023-02-18T01:54:12;48.70;;;9.70;;
13520;SDS011;6832;51.186;3.236;2023-02-18T01:56:43;45.63;;;9.40;;
13520;SDS011;6832;51.186;3.236;2023-02-18T01:59:15;42.77;;;9.23;;
13520;SDS011;6832;51.186;3.236;2023-02-18T02:01:45;38.97;;;8.93;;
13520;SDS011;6832;51.186;3.236;2023-02-18T02:04:13;31.27;;;8.57;;
13520;SDS011;6832;51.186;3.236;2023-02-18T02:06:41;31.23;;;8.43;;
13520;SDS011;6832;51.186;3.236;2023-02-18T02:09:10;39.50;;;8.47;;
13520;SDS011;6832;51.186;3.236;2023-02-18T02:11:45;51.63;;;9.93;;
13520;SDS011;6832;51.186;3.236;2023-02-18T02:14:27;42.50;;;8.60;;
13520;SDS011;6832;51.186;3.236;2023-02-18T02:20:22;41.70;;;8.77;;
13520;SDS011;6832;51.186;3.236;2023-02-18T02:27:03;38.33;;;7.93;;
13520;SDS011;6832;51.186;3.236;2023-02-18T02:33:16;36.97;;;8.30;;
13520;SDS011;6832;51.186;3.236;2023-02-18T02:36:01;40.67;;;8.83;;
13520;SDS011;6832;51.186;3.236;2023-02-18T02:38:36;40.27;;;8.53;;
13520;SDS011;6832;51.186;3.236;2023-02-18T02:41:15;38.63;;;8.50;;
13520;SDS011;6832;51.186;3.236;2023-02-18T02:44:18;44.40;;;9.47;;
13520;SDS011;6832;51.186;3.236;2023-02-18T02:47:17;40.73;;;8.57;;
13520;SDS011;6832;51.186;3.236;2023-02-18T02:49:52;47.67;;;8.87;;
13520;SDS011;6832;51.186;3.236;2023-02-18T02:52:27;35.83;;;8.37;;
13520;SDS011;6832;51.186;3.236;2023-02-18T02:55:10;43.67;;;9.07;;
13520;SDS011;6832;51.186;3.236;2023-02-18T02:58:00;36.13;;;8.37;;
13520;SDS011;6832;51.186;3.236;2023-02-18T03:00:30;36.17;;;8.27;;
13520;SDS011;6832;51.186;3.236;2023-02-18T03:03:18;49.00;;;9.23;;
13520;SDS011;6832;51.186;3.236;2023-02-18T03:06:05;36.47;;;8.17;;
13520;SDS011;6832;51.186;3.236;2023-02-18T03:08:46;36.70;;;8.13;;
13520;SDS011;6832;51.186;3.236;2023-02-18T03:11:22;45.93;;;8.43;;
13520;SDS011;6832;51.186;3.236;2023-02-18T03:14:09;51.03;;;9.10;;
13520;SDS011;6832;51.186;3.236;2023-02-18T03:16:44;39.17;;;8.17;;
13520;SDS011;6832;51.186;3.236;2023-02-18T03:19:18;47.40;;;8.80;;
13520;SDS011;6832;51.186;3.236;2023-02-18T03:21:50;47.80;;;8.80;;
13520;SDS011;6832;51.186;3.236;2023-02-18T03:24:47;34.80;;;7.83;;
13520;SDS011;6832;51.186;3.236;2023-02-18T03:27:23;27.03;;;7.10;;
13520;SDS011;6832;51.186;3.236;2023-02-18T03:29:55;30.67;;;6.83;;
13520;SDS011;6832;51.186;3.236;2023-02-18T03:32:27;39.67;;;8.20;;
13520;SDS011;6832;51.186;3.236;2023-02-18T03:34:57;51.13;;;9.23;;
13520;SDS011;6832;51.186;3.236;2023-02-18T03:37:30;48.47;;;9.07;;
13520;SDS011;6832;51.186;3.236;2023-02-18T03:40:01;25.33;;;6.33;;
13520;SDS011;6832;51.186;3.236;2023-02-18T03:42:28;38.43;;;7.67;;
13520;SDS011;6832;51.186;3.236;2023-02-18T03:44:57;47.97;;;8.07;;
13520;SDS011;6832;51.186;3.236;2023-02-18T03:47:33;39.37;;;7.77;;
13520;SDS011;6832;51.186;3.236;2023-02-18T03:50:01;36.33;;;7.53;;
13520;SDS011;6832;51.186;3.236;2023-02-18T03:52:28;41.07;;;8.63;;
13520;SDS011;6832;51.186;3.236;2023-02-18T03:54:55;33.23;;;7.37;;
13520;SDS011;6832;51.186;3.236;2023-02-18T03:57:24;47.43;;;8.70;;
13520;SDS011;6832;51.186;3.236;2023-02-18T03:59:52;44.13;;;7.90;;
13520;SDS011;6832;51.186;3.236;2023-02-18T04:02:19;42.70;;;8.13;;
13520;SDS011;6832;51.186;3.236;2023-02-18T04:04:46;32.93;;;7.33;;
13520;SDS011;6832;51.186;3.236;2023-02-18T04:07:13;34.00;;;8.40;;
13520;SDS011;6832;51.186;3.236;2023-02-18T04:09:49;44.77;;;8.23;;
13520;SDS011;6832;51.186;3.236;2023-02-18T04:12:36;38.53;;;8.37;;
13520;SDS011;6832;51.186;3.236;2023-02-18T04:15:04;34.63;;;7.57;;
13520;SDS011;6832;51.186;3.236;2023-02-18T04:20:33;31.03;;;7.57;;
13520;SDS011;6832;51.186;3.236;2023-02-18T04:23:06;40.83;;;8.67;;
13520;SDS011;6832;51.186;3.236;2023-02-18T04:25:49;41.27;;;8.40;;
13520;SDS011;6832;51.186;3.236;2023-02-18T04:28:18;35.37;;;7.00;;
13520;SDS011;6832;51.186;3.236;2023-02-18T04:30:58;41.90;;;7.87;;
13520;SDS011;6832;51.186;3.236;2023-02-18T04:33:30;37.03;;;7.43;;
13520;SDS011;6832;51.186;3.236;2023-02-18T04:39:08;38.80;;;7.70;;
13520;SDS011;6832;51.186;3.236;2023-02-18T04:41:35;36.43;;;7.53;;
13520;SDS011;6832;51.186;3.236;2023-02-18T04:44:24;29.33;;;6.87;;
13520;SDS011;6832;51.186;3.236;2023-02-18T04:46:51;30.83;;;7.00;;
13520;SDS011;6832;51.186;3.236;2023-02-18T04:49:21;38.97;;;7.07;;
13520;SDS011;6832;51.186;3.236;2023-02-18T04:51:48;39.13;;;7.13;;
13520;SDS011;6832;51.186;3.236;2023-02-18T04:54:15;39.67;;;7.70;;
13520;SDS011;6832;51.186;3.236;2023-02-18T04:56:43;37.90;;;7.83;;
13520;SDS011;6832;51.186;3.236;2023-02-18T04:59:17;48.00;;;8.13;;
13520;SDS011;6832;51.186;3.236;2023-02-18T05:01:47;47.23;;;7.97;;
13520;SDS011;6832;51.186;3.236;2023-02-18T05:04:16;32.60;;;6.43;;
13520;SDS011;6832;51.186;3.236;2023-02-18T05:06:47;37.77;;;7.07;;
13520;SDS011;6832;51.186;3.236;2023-02-18T05:09:14;33.57;;;6.40;;
13520;SDS011;6832;51.186;3.236;2023-02-18T05:11:42;38.53;;;7.20;;
13520;SDS011;6832;51.186;3.236;2023-02-18T05:14:11;35.57;;;6.77;;
13520;SDS011;6832;51.186;3.236;2023-02-18T05:16:40;43.07;;;7.87;;
13520;SDS011;6832;51.186;3.236;2023-02-18T05:19:34;31.43;;;6.17;;
13520;SDS011;6832;51.186;3.236;2023-02-18T05:22:01;57.77;;;8.33;;
13520;SDS011;6832;51.186;3.236;2023-02-18T05:24:33;42.30;;;7.10;;
13520;SDS011;6832;51.186;3.236;2023-02-18T05:27:18;49.00;;;7.83;;
13520;SDS011;6832;51.186;3.236;2023-02-18T05:29:46;43.00;;;6.97;;
13520;SDS011;6832;51.186;3.236;2023-02-18T05:35:26;37.47;;;6.63;;
13520;SDS011;6832;51.186;3.236;2023-02-18T05:37:53;31.50;;;5.97;;
13520;SDS011;6832;51.186;3.236;2023-02-18T05:40:20;32.23;;;6.33;;
13520;SDS011;6832;51.186;3.236;2023-02-18T05:42:47;53.63;;;7.70;;
13520;SDS011;6832;51.186;3.236;2023-02-18T05:45:30;40.23;;;6.60;;
13520;SDS011;6832;51.186;3.236;2023-02-18T05:47:58;52.83;;;7.83;;
13520;SDS011;6832;51.186;3.236;2023-02-18T05:50:26;37.40;;;6.77;;
13520;SDS011;6832;51.186;3.236;2023-02-18T05:52:54;39.60;;;6.47;;
13520;SDS011;6832;51.186;3.236;2023-02-18T05:55:22;31.57;;;6.33;;
13520;SDS011;6832;51.186;3.236;2023-02-18T05:57:50;27.97;;;5.97;;
13520;SDS011;6832;51.186;3.236;2023-02-18T06:00:18;34.13;;;6.67;;
13520;SDS011;6832;51.186;3.236;2023-02-18T06:02:50;32.57;;;5.83;;
13520;SDS011;6832;51.186;3.236;2023-02-18T06:05:18;38.63;;;6.43;;
13520;SDS011;6832;51.186;3.236;2023-02-18T06:07:50;31.73;;;6.03;;
13520;SDS011;6832;51.186;3.236;2023-02-18T06:10:25;36.17;;;5.93;;
13520;SDS011;6832;51.186;3.236;2023-02-18T06:12:57;42.03;;;6.83;;
13520;SDS011;6832;51.186;3.236;2023-02-18T06:15:48;27.87;;;5.70;;
13520;SDS011;6832;51.186;3.236;2023-02-18T06:18:18;38.63;;;7.00;;
13520;SDS011;6832;51.186;3.236;2023-02-18T06:21:19;76.03;;;9.30;;
13520;SDS011;6832;51.186;3.236;2023-02-18T06:26:47;51.53;;;7.47;;
13520;SDS011;6832;51.186;3.236;2023-02-18T06:29:19;31.67;;;5.57;;
13520;SDS011;6832;51.186;3.236;2023-02-18T06:32:18;37.57;;;6.47;;
13520;SDS011;6832;51.186;3.236;2023-02-18T06:34:47;45.90;;;7.40;;
13520;SDS011;6832;51.186;3.236;2023-02-18T06:37:17;41.90;;;6.77;;
13520;SDS011;6832;51.186;3.236;2023-02-18T06:40:15;41.67;;;7.13;;
13520;SDS011;6832;51.186;3.236;2023-02-18T06:42:43;33.53;;;5.67;;
13520;SDS011;6832;51.186;3.236;2023-02-18T06:45:28;38.13;;;6.47;;
13520;SDS011;6832;51.186;3.236;2023-02-18T06:47:58;35.57;;;6.00;;
13520;SDS011;6832;51.186;3.236;2023-02-18T06:50:31;45.93;;;6.60;;
13520;SDS011;6832;51.186;3.236;2023-02-18T06:53:04;43.57;;;6.93;;
13520;SDS011;6832;51.186;3.236;2023-02-18T06:55:34;47.93;;;7.27;;
13520;SDS011;6832;51.186;3.236;2023-02-18T06:58:01;33.27;;;5.93;;
13520;SDS011;6832;51.186;3.236;2023-02-18T07:03:31;29.50;;;5.77;;
13520;SDS011;6832;51.186;3.236;2023-02-18T07:06:02;34.40;;;6.37;;
13520;SDS011;6832;51.186;3.236;2023-02-18T07:08:30;34.47;;;6.03;;
13520;SDS011;6832;51.186;3.236;2023-02-18T07:11:01;47.40;;;7.10;;
13520;SDS011;6832;51.186;3.236;2023-02-18T07:13:34;32.73;;;6.27;;
13520;SDS011;6832;51.186;3.236;2023-02-18T07:16:10;49.10;;;7.33;;
13520;SDS011;6832;51.186;3.236;2023-02-18T07:18:48;39.07;;;6.23;;
13520;SDS011;6832;51.186;3.236;2023-02-18T07:24:19;26.03;;;5.67;;
13520;SDS011;6832;51.186;3.236;2023-02-18T07:26:55;21.77;;;5.50;;
13520;SDS011;6832;51.186;3.236;2023-02-18T07:29:30;30.17;;;5.83;;
13520;SDS011;6832;51.186;3.236;2023-02-18T07:35:14;34.57;;;5.70;;
13520;SDS011;6832;51.186;3.236;2023-02-18T07:37:43;31.23;;;5.77;;
13520;SDS011;6832;51.186;3.236;2023-02-18T07:40:15;30.67;;;5.40;;
13520;SDS011;6832;51.186;3.236;2023-02-18T07:45:56;47.20;;;6.97;;
13520;SDS011;6832;51.186;3.236;2023-02-18T07:48:24;28.43;;;5.67;;
13520;SDS011;6832;51.186;3.236;2023-02-18T07:50:51;34.40;;;6.33;;
13520;SDS011;6832;51.186;3.236;2023-02-18T07:59:29;35.73;;;5.73;;
13520;SDS011;6832;51.186;3.236;2023-02-18T08:02:01;47.00;;;7.10;;
13520;SDS011;6832;51.186;3.236;2023-02-18T08:04:29;37.37;;;6.13;;
13520;SDS011;6832;51.186;3.236;2023-02-18T08:06:56;33.00;;;5.37;;
13520;SDS011;6832;51.186;3.236;2023-02-18T08:09:23;33.17;;;5.73;;
13520;SDS011;6832;51.186;3.236;2023-02-18T08:11:51;40.03;;;6.47;;
13520;SDS011;6832;51.186;3.236;2023-02-18T08:14:20;36.27;;;6.23;;
13520;SDS011;6832;51.186;3.236;2023-02-18T08:16:50;43.60;;;6.33;;
13520;SDS011;6832;51.186;3.236;2023-02-18T08:19:19;43.43;;;6.87;;
13520;SDS011;6832;51.186;3.236;2023-02-18T08:27:31;32.33;;;5.67;;
13520;SDS011;6832;51.186;3.236;2023-02-18T08:29:58;33.53;;;5.77;;
13520;SDS011;6832;51.186;3.236;2023-02-18T08:32:42;34.80;;;5.83;;
13520;SDS011;6832;51.186;3.236;2023-02-18T08:35:39;31.50;;;5.47;;
13520;SDS011;6832;51.186;3.236;2023-02-18T08:38:06;41.03;;;6.10;;
13520;SDS011;6832;51.186;3.236;2023-02-18T08:40:38;36.50;;;5.80;;
13520;SDS011;6832;51.186;3.236;2023-02-18T08:49:59;30.20;;;5.60;;
13520;SDS011;6832;51.186;3.236;2023-02-18T08:55:39;30.43;;;5.67;;
13520;SDS011;6832;51.186;3.236;2023-02-18T08:58:31;33.03;;;6.13;;
13520;SDS011;6832;51.186;3.236;2023-02-18T09:01:01;56.47;;;7.83;;
13520;SDS011;6832;51.186;3.236;2023-02-18T09:03:53;24.73;;;4.83;;
13520;SDS011;6832;51.186;3.236;2023-02-18T09:06:20;50.37;;;6.83;;
13520;SDS011;6832;51.186;3.236;2023-02-18T09:08:53;38.90;;;6.30;;
13520;SDS011;6832;51.186;3.236;2023-02-18T09:11:22;40.90;;;6.33;;
13520;SDS011;6832;51.186;3.236;2023-02-18T09:13:49;30.87;;;5.93;;
13520;SDS011;6832;51.186;3.236;2023-02-18T09:16:23;34.40;;;5.83;;
13520;SDS011;6832;51.186;3.236;2023-02-18T09:19:03;48.07;;;6.50;;
13520;SDS011;6832;51.186;3.236;2023-02-18T09:21:36;49.73;;;6.87;;
13520;SDS011;6832;51.186;3.236;2023-02-18T09:24:59;43.90;;;6.83;;
13520;SDS011;6832;51.186;3.236;2023-02-18T09:27:34;41.83;;;7.33;;
13520;SDS011;6832;51.186;3.236;2023-02-18T09:30:20;38.07;;;6.03;;
13520;SDS011;6832;51.186;3.236;2023-02-18T09:32:56;37.87;;;6.27;;
13520;SDS011;6832;51.186;3.236;2023-02-18T09:35:27;66.57;;;9.00;;
13520;SDS011;6832;51.186;3.236;2023-02-18T09:37:57;33.90;;;6.10;;
13520;SDS011;6832;51.186;3.236;2023-02-18T09:40:29;34.43;;;5.97;;
13520;SDS011;6832;51.186;3.236;2023-02-18T09:43:01;35.70;;;6.03;;
13520;SDS011;6832;51.186;3.236;2023-02-18T09:45:28;44.40;;;6.60;;
13520;SDS011;6832;51.186;3.236;2023-02-18T09:47:56;35.50;;;6.07;;
13520;SDS011;6832;51.186;3.236;2023-02-18T09:50:25;40.13;;;6.47;;
13520;SDS011;6832;51.186;3.236;2023-02-18T09:52:54;37.50;;;6.37;;
13520;SDS011;6832;51.186;3.236;2023-02-18T09:55:24;43.43;;;6.63;;
13520;SDS011;6832;51.186;3.236;2023-02-18T10:00:41;48.97;;;7.40;;
13520;SDS011;6832;51.186;3.236;2023-02-18T10:03:13;37.33;;;6.67;;
13520;SDS011;6832;51.186;3.236;2023-02-18T10:05:45;40.23;;;6.87;;
13520;SDS011;6832;51.186;3.236;2023-02-18T10:08:21;46.90;;;6.97;;
13520;SDS011;6832;51.186;3.236;2023-02-18T10:10:51;38.67;;;6.77;;
13520;SDS011;6832;51.186;3.236;2023-02-18T10:13:21;48.77;;;7.33;;
13520;SDS011;6832;51.186;3.236;2023-02-18T10:15:50;36.17;;;6.37;;
13520;SDS011;6832;51.186;3.236;2023-02-18T10:18:22;36.40;;;6.07;;
13520;SDS011;6832;51.186;3.236;2023-02-18T10:20:55;33.93;;;6.73;;
13520;SDS011;6832;51.186;3.236;2023-02-18T10:23:29;46.27;;;7.10;;
13520;SDS011;6832;51.186;3.236;2023-02-18T10:25:59;39.50;;;6.67;;
13520;SDS011;6832;51.186;3.236;2023-02-18T10:28:33;58.13;;;8.20;;
13520;SDS011;6832;51.186;3.236;2023-02-18T10:31:06;45.00;;;6.97;;
13520;SDS011;6832;51.186;3.236;2023-02-18T10:33:41;36.30;;;6.33;;
13520;SDS011;6832;51.186;3.236;2023-02-18T10:39:18;49.47;;;7.03;;
13520;SDS011;6832;51.186;3.236;2023-02-18T10:42:00;38.33;;;6.50;;
13520;SDS011;6832;51.186;3.236;2023-02-18T10:44:36;50.17;;;7.60;;
13520;SDS011;6832;51.186;3.236;2023-02-18T10:47:15;33.60;;;5.80;;
13520;SDS011;6832;51.186;3.236;2023-02-18T10:49:55;34.07;;;5.87;;
13520;SDS011;6832;51.186;3.236;2023-02-18T10:52:27;22.80;;;4.87;;
13520;SDS011;6832;51.186;3.236;2023-02-18T10:55:09;32.17;;;5.53;;
13520;SDS011;6832;51.186;3.236;2023-02-18T10:57:57;33.73;;;6.03;;
13520;SDS011;6832;51.186;3.236;2023-02-18T11:00:48;30.10;;;5.70;;
13520;SDS011;6832;51.186;3.236;2023-02-18T11:03:23;32.47;;;6.20;;
13520;SDS011;6832;51.186;3.236;2023-02-18T11:06:13;26.87;;;5.43;;
13520;SDS011;6832;51.186;3.236;2023-02-18T11:09:22;34.03;;;6.27;;
13520;SDS011;6832;51.186;3.236;2023-02-18T11:12:02;28.43;;;5.33;;
13520;SDS011;6832;51.186;3.236;2023-02-18T11:15:04;29.40;;;5.57;;
13520;SDS011;6832;51.186;3.236;2023-02-18T11:17:45;42.63;;;7.07;;
13520;SDS011;6832;51.186;3.236;2023-02-18T11:37:52;28.80;;;5.63;;
13520;SDS011;6832;51.186;3.236;2023-02-18T11:40:27;38.80;;;6.43;;
13520;SDS011;6832;51.186;3.236;2023-02-18T11:43:12;34.20;;;6.93;;
13520;SDS011;6832;51.186;3.236;2023-02-18T11:46:20;35.27;;;6.23;;
13520;SDS011;6832;51.186;3.236;2023-02-18T11:51:54;44.50;;;7.33;;
13520;SDS011;6832;51.186;3.236;2023-02-18T11:54:47;37.23;;;7.30;;
13520;SDS011;6832;51.186;3.236;2023-02-18T11:57:30;28.07;;;6.03;;
13520;SDS011;6832;51.186;3.236;2023-02-18T12:00:14;26.97;;;5.33;;
13520;SDS011;6832;51.186;3.236;2023-02-18T12:03:22;22.03;;;5.80;;
13520;SDS011;6832;51.186;3.236;2023-02-18T12:06:02;24.50;;;5.50;;
13520;SDS011;6832;51.186;3.236;2023-02-18T12:08:33;38.20;;;6.63;;
13520;SDS011;6832;51.186;3.236;2023-02-18T12:14:19;37.47;;;7.53;;
13520;SDS011;6832;51.186;3.236;2023-02-18T12:17:05;29.57;;;6.13;;
13520;SDS011;6832;51.186;3.236;2023-02-18T12:22:54;35.80;;;6.30;;
13520;SDS011;6832;51.186;3.236;2023-02-18T12:25:30;47.27;;;8.00;;
13520;SDS011;6832;51.186;3.236;2023-02-18T12:28:09;28.20;;;5.70;;
13520;SDS011;6832;51.186;3.236;2023-02-18T12:30:56;43.10;;;6.83;;
13520;SDS011;6832;51.186;3.236;2023-02-18T12:33:44;40.97;;;6.47;;
13520;SDS011;6832;51.186;3.236;2023-02-18T12:36:23;32.90;;;6.50;;
13520;SDS011;6832;51.186;3.236;2023-02-18T12:39:02;46.30;;;7.20;;
13520;SDS011;6832;51.186;3.236;2023-02-18T12:44:53;30.97;;;6.33;;
13520;SDS011;6832;51.186;3.236;2023-02-18T12:50:38;29.47;;;6.17;;
13520;SDS011;6832;51.186;3.236;2023-02-18T12:56:12;31.27;;;5.73;;
13520;SDS011;6832;51.186;3.236;2023-02-18T12:59:10;29.77;;;5.93;;
13520;SDS011;6832;51.186;3.236;2023-02-18T13:01:50;24.83;;;4.97;;
13520;SDS011;6832;51.186;3.236;2023-02-18T13:04:36;26.63;;;5.50;;
13520;SDS011;6832;51.186;3.236;2023-02-18T13:10:11;42.83;;;7.17;;
13520;SDS011;6832;51.186;3.236;2023-02-18T13:13:07;29.63;;;5.63;;
13520;SDS011;6832;51.186;3.236;2023-02-18T13:15:50;27.93;;;5.77;;
13520;SDS011;6832;51.186;3.236;2023-02-18T13:18:44;33.07;;;5.87;;
13520;SDS011;6832;51.186;3.236;2023-02-18T13:21:24;29.03;;;5.70;;
13520;SDS011;6832;51.186;3.236;2023-02-18T13:23:57;31.03;;;6.03;;
13520;SDS011;6832;51.186;3.236;2023-02-18T13:26:32;28.27;;;6.03;;
13520;SDS011;6832;51.186;3.236;2023-02-18T13:29:09;24.37;;;5.10;;
13520;SDS011;6832;51.186;3.236;2023-02-18T13:31:51;34.50;;;6.57;;
13520;SDS011;6832;51.186;3.236;2023-02-18T13:34:29;29.77;;;5.73;;
13520;SDS011;6832;51.186;3.236;2023-02-18T13:37:05;26.10;;;5.57;;
13520;SDS011;6832;51.186;3.236;2023-02-18T13:39:44;50.07;;;7.53;;
13520;SDS011;6832;51.186;3.236;2023-02-18T13:42:36;25.30;;;5.27;;
13520;SDS011;6832;51.186;3.236;2023-02-18T13:45:55;32.57;;;5.97;;
13520;SDS011;6832;51.186;3.236;2023-02-18T13:48:54;31.07;;;6.20;;
13520;SDS011;6832;51.186;3.236;2023-02-18T13:51:39;22.53;;;5.50;;
13520;SDS011;6832;51.186;3.236;2023-02-18T13:54:31;45.27;;;7.13;;
13520;SDS011;6832;51.186;3.236;2023-02-18T13:57:12;27.20;;;5.20;;
13520;SDS011;6832;51.186;3.236;2023-02-18T14:00:04;40.43;;;6.50;;
13520;SDS011;6832;51.186;3.236;2023-02-18T14:02:57;23.80;;;5.37;;
13520;SDS011;6832;51.186;3.236;2023-02-18T14:12:37;25.67;;;5.73;;
13520;SDS011;6832;51.186;3.236;2023-02-18T14:21:47;41.37;;;6.97;;
13520;SDS011;6832;51.186;3.236;2023-02-18T14:25:14;25.17;;;5.53;;
13520;SDS011;6832;51.186;3.236;2023-02-18T14:34:18;27.10;;;5.37;;
13520;SDS011;6832;51.186;3.236;2023-02-18T14:37:09;31.63;;;6.27;;
13520;SDS011;6832;51.186;3.236;2023-02-18T14:40:13;28.83;;;5.60;;
13520;SDS011;6832;51.186;3.236;2023-02-18T14:43:16;37.33;;;6.70;;
13520;SDS011;6832;51.186;3.236;2023-02-18T14:49:35;35.70;;;6.60;;
13520;SDS011;6832;51.186;3.236;2023-02-18T14:52:14;27.37;;;5.63;;
13520;SDS011;6832;51.186;3.236;2023-02-18T14:55:05;25.07;;;5.97;;
13520;SDS011;6832;51.186;3.236;2023-02-18T14:57:49;39.60;;;6.73;;
13520;SDS011;6832;51.186;3.236;2023-02-18T15:00:23;26.60;;;5.80;;
13520;SDS011;6832;51.186;3.236;2023-02-18T15:03:02;33.60;;;6.50;;
13520;SDS011;6832;51.186;3.236;2023-02-18T15:05:43;31.17;;;6.37;;
13520;SDS011;6832;51.186;3.236;2023-02-18T15:08:23;27.97;;;6.33;;
13520;SDS011;6832;51.186;3.236;2023-02-18T15:11:03;34.83;;;6.90;;
13520;SDS011;6832;51.186;3.236;2023-02-18T15:13:36;33.73;;;6.70;;
13520;SDS011;6832;51.186;3.236;2023-02-18T15:16:29;25.97;;;5.70;;
13520;SDS011;6832;51.186;3.236;2023-02-18T15:19:02;36.80;;;6.97;;
13520;SDS011;6832;51.186;3.236;2023-02-18T15:21:32;30.33;;;6.13;;
13520;SDS011;6832;51.186;3.236;2023-02-18T15:24:10;26.50;;;6.37;;
13520;SDS011;6832;51.186;3.236;2023-02-18T15:32:39;29.43;;;6.43;;
13520;SDS011;6832;51.186;3.236;2023-02-18T15:35:24;27.13;;;6.67;;
13520;SDS011;6832;51.186;3.236;2023-02-18T15:38:03;29.73;;;6.50;;
13520;SDS011;6832;51.186;3.236;2023-02-18T15:40:35;31.17;;;6.67;;
13520;SDS011;6832;51.186;3.236;2023-02-18T15:43:13;31.10;;;6.20;;
13520;SDS011;6832;51.186;3.236;2023-02-18T15:46:08;40.13;;;7.23;;
13520;SDS011;6832;51.186;3.236;2023-02-18T15:48:44;36.23;;;7.33;;
13520;SDS011;6832;51.186;3.236;2023-02-18T15:51:18;36.13;;;6.43;;
13520;SDS011;6832;51.186;3.236;2023-02-18T15:53:49;28.30;;;6.03;;
13520;SDS011;6832;51.186;3.236;2023-02-18T15:56:23;40.33;;;7.27;;
13520;SDS011;6832;51.186;3.236;2023-02-18T15:59:13;36.57;;;6.47;;
13520;SDS011;6832;51.186;3.236;2023-02-18T16:01:48;32.80;;;6.53;;
13520;SDS011;6832;51.186;3.236;2023-02-18T16:04:27;33.23;;;6.33;;
13520;SDS011;6832;51.186;3.236;2023-02-18T16:06:57;32.87;;;6.63;;
13520;SDS011;6832;51.186;3.236;2023-02-18T16:09:30;31.60;;;6.63;;
13520;SDS011;6832;51.186;3.236;2023-02-18T16:12:18;34.40;;;6.87;;
13520;SDS011;6832;51.186;3.236;2023-02-18T16:15:13;34.33;;;7.43;;
13520;SDS011;6832;51.186;3.236;2023-02-18T16:17:57;26.87;;;6.50;;
13520;SDS011;6832;51.186;3.236;2023-02-18T16:20:54;28.63;;;6.73;;
13520;SDS011;6832;51.186;3.236;2023-02-18T16:23:33;27.00;;;6.27;;
13520;SDS011;6832;51.186;3.236;2023-02-18T16:26:10;34.87;;;7.07;;
13520;SDS011;6832;51.186;3.236;2023-02-18T16:28:48;25.47;;;6.07;;
13520;SDS011;6832;51.186;3.236;2023-02-18T16:31:22;36.03;;;7.07;;
13520;SDS011;6832;51.186;3.236;2023-02-18T16:33:58;33.20;;;7.00;;
13520;SDS011;6832;51.186;3.236;2023-02-18T16:36:33;27.90;;;6.53;;
13520;SDS011;6832;51.186;3.236;2023-02-18T16:39:27;33.63;;;6.50;;
13520;SDS011;6832;51.186;3.236;2023-02-18T16:41:57;34.57;;;7.27;;
13520;SDS011;6832;51.186;3.236;2023-02-18T16:44:31;36.73;;;7.47;;
13520;SDS011;6832;51.186;3.236;2023-02-18T16:47:05;35.30;;;7.07;;
13520;SDS011;6832;51.186;3.236;2023-02-18T16:49:41;33.57;;;7.00;;
13520;SDS011;6832;51.186;3.236;2023-02-18T16:52:12;43.63;;;7.37;;
13520;SDS011;6832;51.186;3.236;2023-02-18T16:54:43;42.47;;;8.03;;
13520;SDS011;6832;51.186;3.236;2023-02-18T16:57:14;56.23;;;8.20;;
13520;SDS011;6832;51.186;3.236;2023-02-18T16:59:42;40.40;;;7.27;;
13520;SDS011;6832;51.186;3.236;2023-02-18T17:05:27;35.23;;;7.17;;
13520;SDS011;6832;51.186;3.236;2023-02-18T17:07:58;34.70;;;7.20;;
13520;SDS011;6832;51.186;3.236;2023-02-18T17:10:49;45.13;;;7.77;;
13520;SDS011;6832;51.186;3.236;2023-02-18T17:13:19;33.37;;;6.57;;
13520;SDS011;6832;51.186;3.236;2023-02-18T17:15:49;33.23;;;7.03;;
13520;SDS011;6832;51.186;3.236;2023-02-18T17:18:28;39.13;;;7.50;;
13520;SDS011;6832;51.186;3.236;2023-02-18T17:21:16;37.30;;;7.10;;
13520;SDS011;6832;51.186;3.236;2023-02-18T17:23:52;33.90;;;7.10;;
13520;SDS011;6832;51.186;3.236;2023-02-18T17:26:27;32.20;;;6.53;;
13520;SDS011;6832;51.186;3.236;2023-02-18T17:29:02;28.80;;;6.30;;
13520;SDS011;6832;51.186;3.236;2023-02-18T17:31:35;39.37;;;8.23;;
13520;SDS011;6832;51.186;3.236;2023-02-18T17:34:24;35.37;;;6.87;;
13520;SDS011;6832;51.186;3.236;2023-02-18T17:37:00;31.63;;;6.47;;
13520;SDS011;6832;51.186;3.236;2023-02-18T17:39:27;41.47;;;7.87;;
13520;SDS011;6832;51.186;3.236;2023-02-18T17:41:56;42.83;;;7.60;;
13520;SDS011;6832;51.186;3.236;2023-02-18T17:44:24;42.73;;;7.13;;
13520;SDS011;6832;51.186;3.236;2023-02-18T17:46:53;35.70;;;7.73;;
13520;SDS011;6832;51.186;3.236;2023-02-18T17:49:21;42.43;;;8.33;;
13520;SDS011;6832;51.186;3.236;2023-02-18T17:51:51;30.80;;;6.90;;
13520;SDS011;6832;51.186;3.236;2023-02-18T17:54:25;38.43;;;7.33;;
13520;SDS011;6832;51.186;3.236;2023-02-18T17:56:52;30.57;;;6.87;;
13520;SDS011;6832;51.186;3.236;2023-02-18T17:59:20;36.40;;;7.60;;
13520;SDS011;6832;51.186;3.236;2023-02-18T18:01:49;50.13;;;9.13;;